Time;durP1;ratioP1;P1;durP2;ratioP2;P2;SDS_P1;SDS_P2;PMS_P1;PMS_P2;Temp;Humidity;BMP_temperature;BMP_pressure;BME280_temperature;BME280_humidity;BME280_pressure;Samples;Min_cycle;Max_cycle;Signal;HPM_P1;HPM_P2
2022/09/01 00:01:53;;;;;;;4.75;1.30;;;19.80;55.30;;;;;;5066225;28;20028;-63
2022/09/01 00:04:21;;;;;;;3.95;1.50;;;19.70;55.30;;;;;;5066778;28;20492;-63
2022/09/01 00:06:48;;;;;;;5.50;1.30;;;19.70;55.30;;;;;;5058046;28;20026;-62
2022/09/01 00:09:17;;;;;;;4.10;1.50;;;19.70;55.50;;;;;;5088734;28;20031;-63
2022/09/01 00:11:46;;;;;;;2.10;1.20;;;19.70;55.50;;;;;;5076852;28;20372;-63
2022/09/01 00:14:12;;;;;;;3.42;1.25;;;19.60;55.50;;;;;;5072746;28;20055;-63
2022/09/01 00:16:38;;;;;;;3.63;1.25;;;19.60;55.60;;;;;;5092972;28;20076;-62
2022/09/01 00:19:05;;;;;;;5.53;1.60;;;19.60;55.60;;;;;;5094471;28;20453;-63
2022/09/01 00:21:39;;;;;;;4.45;1.52;;;19.60;55.60;;;;;;5076473;28;20118;-62
2022/09/01 00:24:06;;;;;;;3.40;1.58;;;19.60;55.70;;;;;;5072837;28;20039;-63
2022/09/01 00:26:31;;;;;;;1.95;1.10;;;19.60;55.70;;;;;;5093419;28;20036;-63
2022/09/01 00:28:58;;;;;;;3.15;1.20;;;19.60;55.80;;;;;;5091828;28;20445;-63
2022/09/01 00:31:24;;;;;;;3.78;1.20;;;19.60;55.80;;;;;;5076505;28;20024;-63
2022/09/01 00:33:50;;;;;;;4.22;1.65;;;19.50;55.90;;;;;;5089418;28;20033;-62
2022/09/01 00:36:18;;;;;;;3.55;1.42;;;19.50;55.80;;;;;;5058717;28;20119;-62
2022/09/01 00:38:44;;;;;;;4.40;1.70;;;19.50;55.90;;;;;;5094067;28;20108;-63
2022/09/01 00:41:10;;;;;;;4.32;1.50;;;19.50;55.80;;;;;;5076402;28;20035;-62
2022/09/01 00:43:35;;;;;;;4.45;1.35;;;19.50;55.70;;;;;;5069338;28;20368;-63
2022/09/01 00:46:03;;;;;;;3.15;1.40;;;19.50;55.60;;;;;;5093324;28;20031;-63
2022/09/01 00:48:28;;;;;;;4.53;1.25;;;19.50;55.60;;;;;;5094269;28;20080;-62
2022/09/01 00:50:55;;;;;;;3.20;1.45;;;19.50;55.60;;;;;;5059583;28;20161;-62
2022/09/01 00:53:20;;;;;;;2.50;1.20;;;19.50;55.50;;;;;;5055379;28;20031;-63
2022/09/01 00:55:46;;;;;;;3.10;1.40;;;19.50;55.50;;;;;;5063699;28;20035;-63
2022/09/01 00:58:12;;;;;;;2.83;1.40;;;19.50;55.50;;;;;;5093995;28;20028;-63
2022/09/01 01:00:41;;;;;;;4.82;1.67;;;19.40;55.50;;;;;;5067603;28;20028;-63
2022/09/01 01:03:11;;;;;;;3.80;1.13;;;19.40;55.50;;;;;;5074717;28;20521;-63
2022/09/01 01:05:52;;;;;;;3.58;1.30;;;19.40;55.60;;;;;;5061131;28;20432;-62
2022/09/01 01:08:26;;;;;;;3.42;1.40;;;19.40;55.60;;;;;;5080303;28;20032;-63
2022/09/01 01:10:51;;;;;;;4.22;1.27;;;19.40;55.60;;;;;;5074317;28;20086;-62
2022/09/01 01:13:19;;;;;;;2.92;1.20;;;19.30;55.50;;;;;;5084462;28;20039;-62
2022/09/01 01:15:45;;;;;;;3.45;1.40;;;19.30;55.50;;;;;;5063760;28;20419;-63
2022/09/01 01:18:14;;;;;;;4.72;1.30;;;19.30;55.50;;;;;;5090649;28;20107;-63
2022/09/01 01:23:40;;;;;;;3.42;1.23;;;19.30;55.30;;;;;;5091637;28;20028;-63
2022/09/01 01:26:08;;;;;;;2.45;1.15;;;19.30;55.20;;;;;;5075621;28;20020;-63
2022/09/01 01:28:40;;;;;;;3.55;1.45;;;19.30;55.10;;;;;;5072079;28;20054;-63
2022/09/01 01:31:15;;;;;;;4.00;1.40;;;19.30;55.00;;;;;;5070525;28;20471;-63
2022/09/01 01:33:46;;;;;;;3.28;1.42;;;19.30;54.80;;;;;;5065609;28;20017;-62
2022/09/01 01:36:18;;;;;;;4.32;1.40;;;19.30;54.60;;;;;;5077680;28;20464;-62
2022/09/01 01:38:46;;;;;;;3.95;1.40;;;19.30;54.50;;;;;;5079370;28;20089;-62
2022/09/01 01:41:13;;;;;;;3.15;1.20;;;19.30;54.30;;;;;;5074883;28;20028;-62
2022/09/01 01:43:40;;;;;;;4.03;1.20;;;19.30;54.20;;;;;;5054381;28;20020;-63
2022/09/01 01:46:08;;;;;;;2.38;1.10;;;19.30;54.20;;;;;;5088505;28;20520;-63
2022/09/01 01:48:40;;;;;;;3.05;1.40;;;19.40;54.10;;;;;;5063233;28;20024;-63
2022/09/01 01:51:06;;;;;;;2.53;1.08;;;19.40;54.00;;;;;;5075413;28;20028;-63
2022/09/01 01:53:33;;;;;;;3.65;1.27;;;19.40;53.80;;;;;;5069826;28;20058;-63
2022/09/01 01:55:59;;;;;;;3.83;1.50;;;19.40;53.70;;;;;;5069093;28;20042;-62
2022/09/01 01:58:29;;;;;;;3.53;1.40;;;19.40;53.50;;;;;;5079198;28;20020;-62
2022/09/01 02:00:57;;;;;;;3.40;1.30;;;19.40;53.40;;;;;;5059869;28;20031;-62
2022/09/01 02:03:27;;;;;;;2.47;1.10;;;19.40;53.30;;;;;;5072697;28;20027;-62
2022/09/01 02:05:54;;;;;;;3.22;1.10;;;19.50;53.20;;;;;;5063467;28;20052;-63
2022/09/01 02:08:24;;;;;;;3.15;1.10;;;19.50;53.10;;;;;;5075588;28;20050;-62
2022/09/01 02:10:52;;;;;;;3.88;1.40;;;19.50;53.00;;;;;;5061716;28;20047;-63
2022/09/01 02:13:27;;;;;;;3.85;1.17;;;19.40;52.80;;;;;;5061418;28;20043;-62
2022/09/01 02:15:54;;;;;;;2.42;1.10;;;19.50;52.70;;;;;;5048081;28;20466;-63
2022/09/01 02:18:28;;;;;;;4.00;1.15;;;19.50;52.60;;;;;;5058245;28;20418;-62
2022/09/01 02:21:00;;;;;;;6.30;1.63;;;19.50;52.50;;;;;;5082712;28;20346;-63
2022/09/01 02:23:26;;;;;;;3.30;1.20;;;19.50;52.40;;;;;;5077752;28;20020;-62
2022/09/01 02:25:59;;;;;;;3.28;1.20;;;19.50;52.40;;;;;;5074840;28;20059;-64
2022/09/01 02:28:26;;;;;;;4.32;1.25;;;19.50;52.40;;;;;;5078755;28;20123;-62
2022/09/01 02:30:56;;;;;;;5.82;1.20;;;19.50;52.40;;;;;;5056224;28;20093;-63
2022/09/01 02:33:24;;;;;;;4.75;1.38;;;19.50;52.40;;;;;;5075503;28;20031;-63
2022/09/01 02:36:01;;;;;;;3.25;1.23;;;19.40;52.40;;;;;;5091668;28;20554;-63
2022/09/01 02:38:28;;;;;;;2.78;1.17;;;19.40;52.40;;;;;;5061071;28;20032;-64
2022/09/01 02:40:57;;;;;;;2.75;1.15;;;19.40;52.50;;;;;;5076244;28;20039;-63
2022/09/01 02:43:27;;;;;;;4.03;1.27;;;19.40;52.50;;;;;;5059736;28;20027;-62
2022/09/01 02:45:56;;;;;;;2.33;1.30;;;19.40;52.60;;;;;;5067918;28;20107;-63
2022/09/01 02:48:34;;;;;;;3.20;1.30;;;19.40;52.70;;;;;;5077704;28;20368;-62
2022/09/01 02:51:03;;;;;;;2.53;1.33;;;19.30;52.80;;;;;;5076993;28;20032;-63
2022/09/01 02:53:33;;;;;;;3.35;1.30;;;19.30;52.90;;;;;;5077488;28;20051;-62
2022/09/01 02:56:01;;;;;;;3.38;1.30;;;19.20;53.50;;;;;;5050617;28;20200;-63
2022/09/01 02:58:31;;;;;;;5.03;1.55;;;19.20;53.00;;;;;;5072286;28;20020;-63
2022/09/01 03:00:57;;;;;;;3.00;1.38;;;19.20;53.00;;;;;;5074132;28;20414;-63
2022/09/01 03:03:24;;;;;;;2.70;1.35;;;19.20;53.10;;;;;;5051453;28;20177;-62
2022/09/01 03:05:55;;;;;;;2.22;1.10;;;19.20;53.10;;;;;;5070381;28;20086;-64
2022/09/01 03:08:23;;;;;;;5.15;1.55;;;19.20;53.10;;;;;;5076092;28;20028;-65
2022/09/01 03:10:52;;;;;;;5.78;1.45;;;19.10;53.10;;;;;;5076665;28;20028;-64
2022/09/01 03:13:22;;;;;;;2.83;1.30;;;19.20;53.10;;;;;;5066021;28;20047;-64
2022/09/01 03:15:49;;;;;;;2.38;1.15;;;19.10;53.10;;;;;;5057638;28;20101;-64
2022/09/01 03:18:17;;;;;;;3.60;1.23;;;19.10;53.20;;;;;;5073971;28;20021;-65
2022/09/01 03:20:45;;;;;;;5.20;1.83;;;19.10;53.10;;;;;;5047921;28;20027;-64
2022/09/01 03:23:14;;;;;;;4.22;1.20;;;19.10;53.10;;;;;;5064156;28;20313;-64
2022/09/01 03:25:42;;;;;;;4.03;1.30;;;19.10;53.10;;;;;;5067671;28;20016;-64
2022/09/01 03:28:11;;;;;;;3.25;1.48;;;19.10;53.10;;;;;;5078426;28;20329;-65
2022/09/01 03:30:39;;;;;;;4.32;1.60;;;19.10;53.10;;;;;;5062585;28;20020;-65
2022/09/01 03:33:06;;;;;;;4.40;1.23;;;19.10;53.20;;;;;;5063461;28;20052;-64
2022/09/01 03:35:32;;;;;;;6.70;1.60;;;19.00;53.20;;;;;;5058187;28;20357;-65
2022/09/01 03:38:00;;;;;;;3.08;1.40;;;19.00;53.30;;;;;;5075103;28;20063;-65
2022/09/01 03:40:31;;;;;;;3.22;1.15;;;19.00;53.30;;;;;;5094980;28;20028;-64
2022/09/01 03:43:02;;;;;;;3.10;1.23;;;19.00;53.30;;;;;;5072187;28;20016;-65
2022/09/01 03:45:34;;;;;;;4.80;1.48;;;18.90;53.40;;;;;;5074193;28;20077;-63
2022/09/01 03:48:05;;;;;;;4.63;1.40;;;18.90;53.40;;;;;;5075027;28;20360;-62
2022/09/01 03:50:31;;;;;;;3.10;1.38;;;18.90;53.40;;;;;;5092877;28;20071;-63
2022/09/01 03:52:59;;;;;;;3.63;1.30;;;18.90;53.40;;;;;;5050054;28;20079;-63
2022/09/01 03:55:29;;;;;;;4.78;1.40;;;18.80;53.40;;;;;;5070571;28;20025;-63
2022/09/01 03:58:05;;;;;;;2.45;1.20;;;18.80;53.40;;;;;;5073054;28;20075;-62
2022/09/01 04:00:34;;;;;;;4.55;1.48;;;18.80;53.40;;;;;;5094799;28;20464;-62
2022/09/01 04:03:03;;;;;;;3.77;1.40;;;18.80;53.50;;;;;;5057818;28;20410;-65
2022/09/01 04:05:32;;;;;;;2.75;1.27;;;18.80;53.50;;;;;;5094763;28;20035;-62
2022/09/01 04:08:09;;;;;;;4.30;1.35;;;18.70;53.50;;;;;;5070833;28;20095;-63
2022/09/01 04:11:01;;;;;;;3.38;1.30;;;18.80;53.50;;;;;;5058634;28;20048;-63
2022/09/01 04:13:32;;;;;;;2.13;1.10;;;18.70;53.50;;;;;;5056756;28;20044;-63
2022/09/01 04:15:58;;;;;;;4.75;1.38;;;18.70;53.60;;;;;;5075510;28;20027;-63
2022/09/01 04:18:25;;;;;;;3.50;1.40;;;18.60;53.50;;;;;;5067424;28;20036;-63
2022/09/01 04:20:53;;;;;;;2.83;1.40;;;18.60;53.50;;;;;;5075212;28;20064;-63
2022/09/01 04:23:33;;;;;;;3.65;1.40;;;18.60;53.50;;;;;;5082834;28;20433;-63
2022/09/01 04:26:13;;;;;;;2.50;1.33;;;18.60;53.50;;;;;;5080631;28;20024;-63
2022/09/01 04:28:49;;;;;;;3.35;1.40;;;18.60;53.50;;;;;;5071431;28;20039;-62
2022/09/01 04:31:18;;;;;;;3.92;1.33;;;18.50;53.50;;;;;;5069460;28;20016;-62
2022/09/01 04:33:51;;;;;;;5.30;1.30;;;18.60;53.60;;;;;;5063154;28;20077;-61
2022/09/01 04:36:29;;;;;;;3.83;1.58;;;18.50;53.50;;;;;;5068689;28;20028;-62
2022/09/01 04:39:00;;;;;;;4.15;1.70;;;18.50;53.50;;;;;;5089611;28;20016;-61
2022/09/01 04:41:31;;;;;;;3.83;1.33;;;18.50;53.50;;;;;;5065301;28;20055;-62
2022/09/01 04:44:03;;;;;;;2.55;1.20;;;18.50;53.40;;;;;;5074544;28;20064;-62
2022/09/01 04:46:34;;;;;;;2.63;1.13;;;18.50;53.40;;;;;;5059019;28;20031;-62
2022/09/01 04:49:09;;;;;;;4.10;1.38;;;18.50;53.40;;;;;;5076547;28;20024;-62
2022/09/01 04:51:40;;;;;;;3.42;1.30;;;18.50;53.40;;;;;;5059758;28;20115;-62
2022/09/01 04:54:09;;;;;;;;;;;18.50;53.40;;;;;;5051600;28;20092;-61
2022/09/01 04:56:36;;;;;;;2.00;1.10;;;18.50;53.50;;;;;;5067034;28;19915;-62
2022/09/01 04:59:12;;;;;;;4.93;1.38;;;18.40;53.50;;;;;;5060205;28;20035;-61
2022/09/01 05:01:42;;;;;;;3.92;1.38;;;18.40;53.40;;;;;;5074770;28;20028;-62
2022/09/01 05:04:16;;;;;;;3.20;1.30;;;18.40;53.50;;;;;;5076134;28;20569;-62
2022/09/01 05:06:45;;;;;;;5.07;1.40;;;18.40;53.50;;;;;;5060509;28;20357;-62
2022/09/01 05:09:12;;;;;;;4.32;1.30;;;18.40;53.50;;;;;;5076029;28;20024;-62
2022/09/01 05:11:52;;;;;;;3.65;1.67;;;18.40;53.50;;;;;;5080109;28;20016;-62
2022/09/01 05:14:29;;;;;;;3.50;1.27;;;18.40;53.60;;;;;;5078665;28;20353;-62
2022/09/01 05:16:57;;;;;;;6.53;1.73;;;18.40;53.60;;;;;;5097999;28;20057;-62
2022/09/01 05:19:27;;;;;;;5.53;1.73;;;18.30;53.50;;;;;;5079209;28;20024;-62
2022/09/01 05:21:57;;;;;;;2.85;1.30;;;18.30;53.60;;;;;;5080466;28;20095;-62
2022/09/01 05:24:33;;;;;;;3.92;1.58;;;18.30;53.60;;;;;;5079857;28;20020;-62
2022/09/01 05:27:06;;;;;;;4.97;1.30;;;18.30;53.60;;;;;;5080140;28;20425;-62
2022/09/01 05:29:36;;;;;;;3.40;1.38;;;18.30;53.60;;;;;;5079304;28;20028;-62
2022/09/01 05:32:08;;;;;;;3.40;1.20;;;18.30;53.60;;;;;;5079795;28;20032;-62
2022/09/01 05:34:36;;;;;;;3.95;1.50;;;18.30;53.60;;;;;;5078138;28;20085;-63
2022/09/01 05:37:02;;;;;;;3.13;1.30;;;18.30;53.70;;;;;;5078373;28;20419;-62
2022/09/01 05:39:28;;;;;;;5.53;1.67;;;18.20;53.70;;;;;;5095375;28;20049;-61
2022/09/01 05:41:54;;;;;;;3.92;1.30;;;18.30;53.70;;;;;;5075887;28;20345;-62
2022/09/01 05:44:21;;;;;;;4.55;1.70;;;18.30;53.70;;;;;;5090484;28;20028;-62
2022/09/01 05:46:49;;;;;;;5.43;1.65;;;18.30;53.70;;;;;;5056598;28;20075;-62
2022/09/01 05:49:17;;;;;;;4.90;1.75;;;18.30;53.70;;;;;;5073289;28;20064;-62
2022/09/01 05:51:51;;;;;;;2.72;1.35;;;18.30;53.70;;;;;;5068420;28;20039;-62
2022/09/01 05:54:26;;;;;;;4.68;1.65;;;18.30;53.70;;;;;;5072778;28;20027;-61
2022/09/01 05:56:54;;;;;;;4.47;1.50;;;18.30;53.60;;;;;;5073965;28;20371;-62
2022/09/01 05:59:25;;;;;;;3.55;1.67;;;18.30;53.70;;;;;;5071684;28;20360;-62
2022/09/01 06:01:52;;;;;;;4.05;1.40;;;18.30;53.60;;;;;;5075786;28;20085;-62
2022/09/01 06:04:18;;;;;;;3.10;1.45;;;18.40;53.60;;;;;;5090620;28;20032;-63
2022/09/01 06:06:48;;;;;;;4.38;1.85;;;18.40;53.60;;;;;;5075695;28;20361;-64
2022/09/01 06:09:17;;;;;;;2.80;1.27;;;18.40;53.50;;;;;;5078956;28;20035;-63
2022/09/01 06:11:45;;;;;;;4.68;1.75;;;18.40;53.40;;;;;;5079486;28;20443;-63
2022/09/01 06:14:14;;;;;;;5.85;1.65;;;18.40;53.40;;;;;;5072517;28;20040;-63
2022/09/01 06:16:42;;;;;;;3.92;1.65;;;18.60;53.20;;;;;;5062213;28;20027;-62
2022/09/01 06:19:09;;;;;;;4.63;1.92;;;18.80;53.00;;;;;;5078584;28;20028;-62
2022/09/01 06:21:38;;;;;;;5.25;1.67;;;18.80;52.60;;;;;;5077405;28;20020;-63
2022/09/01 06:24:05;;;;;;;3.22;1.50;;;19.30;52.20;;;;;;5078755;28;20028;-63
2022/09/01 06:26:33;;;;;;;3.83;1.40;;;20.00;51.10;;;;;;5079192;28;20024;-63
2022/09/01 06:29:04;;;;;;;4.03;1.55;;;20.90;49.70;;;;;;5061152;28;20057;-63
2022/09/01 06:31:32;;;;;;;4.72;1.60;;;21.70;48.40;;;;;;5062155;28;20024;-63
2022/09/01 06:34:07;;;;;;;4.32;1.75;;;22.20;47.30;;;;;;5069484;28;20035;-63
2022/09/01 06:36:39;;;;;;;5.22;1.60;;;22.60;46.40;;;;;;5074652;28;20056;-63
2022/09/01 06:39:06;;;;;;;;;;;22.40;46.40;;;;;;5052109;28;20028;-62
2022/09/01 06:41:31;;;;;;;5.30;1.80;;;21.90;47.20;;;;;;5075109;28;20303;-63
2022/09/01 06:44:00;;;;;;;3.72;1.65;;;21.40;47.80;;;;;;5077226;28;20045;-63
2022/09/01 06:46:26;;;;;;;4.35;1.80;;;21.00;48.30;;;;;;5095248;28;20329;-62
2022/09/01 06:48:57;;;;;;;4.07;1.73;;;20.80;48.60;;;;;;5061792;28;20020;-63
2022/09/01 06:51:24;;;;;;;3.25;1.58;;;20.70;49.00;;;;;;5078348;28;20159;-63
2022/09/01 06:53:55;;;;;;;5.53;1.90;;;20.60;48.90;;;;;;5078211;28;20020;-62
2022/09/01 06:56:32;;;;;;;4.50;1.63;;;20.70;48.80;;;;;;5078413;28;20097;-63
2022/09/01 06:59:03;;;;;;;5.85;2.05;;;20.90;48.50;;;;;;5077034;28;20028;-63
2022/09/01 07:01:29;;;;;;;6.13;1.83;;;21.00;48.30;;;;;;5060910;28;20411;-63
2022/09/01 07:03:55;;;;;;;4.68;1.60;;;21.20;48.80;;;;;;5078034;28;20030;-63
2022/09/01 07:06:42;;;;;;;4.68;1.70;;;21.30;48.00;;;;;;5078499;28;20016;-63
2022/09/01 07:09:47;;;;;;;4.22;1.67;;;21.50;47.70;;;;;;5094051;28;20084;-63
2022/09/01 07:12:22;;;;;;;3.15;1.40;;;21.70;47.40;;;;;;5077746;28;20063;-63
2022/09/01 07:14:48;;;;;;;4.10;1.60;;;21.90;47.30;;;;;;5057096;28;20041;-62
2022/09/01 07:17:14;;;;;;;5.43;1.60;;;22.00;47.20;;;;;;5079855;28;20039;-62
2022/09/01 07:19:40;;;;;;;3.85;1.63;;;22.00;47.10;;;;;;5075270;28;20024;-62
2022/09/01 07:22:06;;;;;;;4.35;1.75;;;22.10;47.20;;;;;;5071354;28;20038;-63
2022/09/01 07:24:34;;;;;;;3.25;1.40;;;22.20;47.20;;;;;;5075665;28;20028;-63
2022/09/01 07:27:19;;;;;;;3.58;1.40;;;22.30;47.00;;;;;;5091792;28;20090;-62
2022/09/01 07:29:46;;;;;;;3.63;1.20;;;22.50;46.70;;;;;;5075513;28;20068;-62
2022/09/01 07:32:12;;;;;;;6.82;1.70;;;22.50;46.60;;;;;;5060860;28;20047;-62
2022/09/01 07:34:38;;;;;;;3.30;1.60;;;22.40;46.70;;;;;;5077277;28;20039;-63
2022/09/01 07:37:07;;;;;;;9.27;1.60;;;22.30;46.80;;;;;;5071366;28;20023;-64
2022/09/01 07:39:35;;;;;;;6.65;1.40;;;22.00;47.10;;;;;;5053989;28;20034;-64
2022/09/01 07:42:23;;;;;;;4.55;1.50;;;21.80;48.10;;;;;;5057474;28;20128;-64
2022/09/01 07:45:09;;;;;;;4.28;1.50;;;21.80;47.60;;;;;;5076090;28;20051;-63
2022/09/01 07:47:45;;;;;;;3.10;1.50;;;21.80;47.70;;;;;;5061939;28;20098;-64
2022/09/01 07:50:14;;;;;;;3.22;1.45;;;22.10;47.40;;;;;;5073009;28;20035;-64
2022/09/01 07:52:42;;;;;;;5.55;1.70;;;22.40;47.00;;;;;;5073547;28;20040;-63
2022/09/01 07:55:11;;;;;;;4.13;1.58;;;22.80;46.60;;;;;;5072483;28;20023;-63
2022/09/01 07:57:41;;;;;;;4.40;1.40;;;23.10;46.10;;;;;;5076822;28;20483;-63
2022/09/01 08:00:14;;;;;;;4.03;1.50;;;23.30;45.50;;;;;;5081106;28;20410;-63
2022/09/01 08:02:43;;;;;;;4.97;1.60;;;23.50;45.20;;;;;;5071735;28;20044;-64
2022/09/01 08:05:21;;;;;;;4.88;1.40;;;23.70;44.80;;;;;;5064904;28;20347;-63
2022/09/01 08:07:48;;;;;;;4.75;1.40;;;23.90;44.60;;;;;;5090222;28;20024;-64
2022/09/01 08:10:15;;;;;;;4.72;1.25;;;24.10;44.50;;;;;;5069807;28;20119;-63
2022/09/01 08:12:41;;;;;;;2.30;1.17;;;24.30;44.30;;;;;;5069653;28;20036;-63
2022/09/01 08:15:08;;;;;;;4.43;1.42;;;24.40;43.90;;;;;;5056690;28;20052;-65
2022/09/01 08:17:36;;;;;;;5.97;1.20;;;24.60;43.70;;;;;;5053780;28;20528;-64
2022/09/01 08:20:08;;;;;;;4.25;1.40;;;24.70;43.50;;;;;;5054304;28;20084;-64
2022/09/01 08:22:48;;;;;;;4.03;1.70;;;24.80;43.30;;;;;;5061917;28;20352;-64
2022/09/01 08:25:22;;;;;;;3.53;1.30;;;25.00;43.00;;;;;;5072578;28;20031;-64
2022/09/01 08:27:48;;;;;;;4.43;1.60;;;25.20;42.80;;;;;;5068303;28;20100;-64
2022/09/01 08:30:14;;;;;;;3.15;1.45;;;25.30;42.60;;;;;;5072884;28;20106;-63
2022/09/01 08:32:43;;;;;;;4.65;1.75;;;25.40;42.40;;;;;;5063258;28;20028;-63
2022/09/01 08:35:11;;;;;;;3.85;1.40;;;25.50;42.30;;;;;;5090434;28;20039;-63
2022/09/01 08:37:38;;;;;;;3.78;1.48;;;25.60;41.90;;;;;;5076114;28;20389;-64
2022/09/01 08:40:10;;;;;;;4.75;1.45;;;25.80;41.70;;;;;;5058852;28;20057;-63
2022/09/01 08:42:49;;;;;;;2.35;1.10;;;25.80;41.30;;;;;;5094819;28;20020;-63
2022/09/01 08:45:26;;;;;;;3.67;1.20;;;25.90;41.50;;;;;;5076124;28;20025;-63
2022/09/01 08:47:56;;;;;;;2.95;1.13;;;26.10;41.40;;;;;;5060113;28;20020;-63
2022/09/01 08:50:22;;;;;;;3.27;1.50;;;26.20;41.80;;;;;;5074817;28;20035;-63
2022/09/01 08:53:25;;;;;;;3.40;1.10;;;26.30;40.90;;;;;;5063024;28;20333;-63
2022/09/01 08:55:55;;;;;;;2.88;1.17;;;26.40;40.70;;;;;;5075812;28;20539;-63
2022/09/01 08:58:21;;;;;;;3.53;1.20;;;26.50;40.70;;;;;;5092792;28;20084;-64
2022/09/01 09:01:44;;;;;;;4.15;1.13;;;26.60;40.60;;;;;;5094174;28;20126;-63
2022/09/01 09:04:16;;;;;;;3.67;1.02;;;26.70;40.20;;;;;;5075996;28;20043;-63
2022/09/01 09:07:04;;;;;;;3.17;1.05;;;26.80;40.10;;;;;;5091599;28;20121;-64
2022/09/01 09:09:45;;;;;;;2.60;1.10;;;26.90;39.60;;;;;;5094044;28;20383;-64
2022/09/01 09:12:27;;;;;;;3.70;1.40;;;26.90;39.50;;;;;;5076344;28;20055;-64
2022/09/01 09:15:24;;;;;;;3.42;1.00;;;26.90;39.20;;;;;;5080457;28;20052;-64
2022/09/01 09:17:58;;;;;;;4.03;0.95;;;27.00;38.90;;;;;;5075576;28;20032;-63
2022/09/01 09:20:25;;;;;;;2.22;0.98;;;27.10;38.70;;;;;;5075558;28;20037;-64
2022/09/01 09:22:52;;;;;;;2.33;1.00;;;27.30;38.50;;;;;;5092113;28;20115;-65
2022/09/01 09:25:18;;;;;;;2.85;1.00;;;27.40;38.30;;;;;;5058260;28;20028;-64
2022/09/01 09:27:49;;;;;;;2.50;1.10;;;27.50;38.70;;;;;;5062835;28;20422;-62
2022/09/01 09:30:22;;;;;;;2.75;0.90;;;27.60;37.70;;;;;;5085496;28;20036;-62
2022/09/01 09:33:04;;;;;;;2.45;1.10;;;27.70;37.50;;;;;;5059195;28;20028;-61
2022/09/01 09:35:35;;;;;;;2.17;0.90;;;27.80;37.10;;;;;;5093224;28;20378;-63
2022/09/01 09:38:22;;;;;;;2.33;0.95;;;27.80;36.80;;;;;;5053930;28;20081;-63
2022/09/01 09:41:05;;;;;;;2.40;1.00;;;27.90;36.60;;;;;;5080091;28;20036;-63
2022/09/01 09:43:35;;;;;;;2.28;0.90;;;28.00;36.60;;;;;;5075712;28;20444;-63
2022/09/01 09:46:26;;;;;;;5.90;1.17;;;28.10;36.20;;;;;;5076250;28;20027;-63
2022/09/01 09:49:14;;;;;;;3.58;1.00;;;28.10;35.80;;;;;;5093754;28;20024;-62
2022/09/01 09:51:44;;;;;;;2.45;0.95;;;28.20;35.40;;;;;;5072673;28;20440;-63
2022/09/01 09:54:31;;;;;;;1.70;0.90;;;28.20;35.30;;;;;;5082446;28;20043;-62
2022/09/01 09:57:17;;;;;;;1.77;0.80;;;28.30;35.00;;;;;;5077916;28;20043;-63
2022/09/01 09:59:54;;;;;;;1.88;0.68;;;28.30;34.60;;;;;;5068764;28;20055;-63
2022/09/01 10:02:29;;;;;;;2.42;0.90;;;28.30;34.30;;;;;;5083428;28;20032;-63
2022/09/01 10:04:56;;;;;;;2.55;0.90;;;28.40;34.10;;;;;;5087713;28;20465;-63
2022/09/01 10:07:27;;;;;;;3.42;1.00;;;28.40;34.00;;;;;;5066856;28;20097;-63
2022/09/01 10:09:55;;;;;;;4.35;1.00;;;28.40;33.80;;;;;;5064986;28;20025;-63
2022/09/01 10:12:23;;;;;;;1.95;0.60;;;28.50;33.70;;;;;;5073896;28;20464;-65
2022/09/01 10:14:58;;;;;;;3.67;0.85;;;28.50;33.40;;;;;;5066677;28;20059;-63
2022/09/01 10:17:34;;;;;;;1.58;0.88;;;28.50;33.40;;;;;;5076590;28;20045;-63
2022/09/01 10:20:07;;;;;;;1.85;0.85;;;28.70;33.20;;;;;;5070199;28;20031;-63
2022/09/01 10:22:35;;;;;;;2.03;0.75;;;28.70;33.20;;;;;;5053165;28;20052;-63
2022/09/01 10:25:03;;;;;;;2.67;0.75;;;28.80;33.00;;;;;;5080755;28;20024;-62
2022/09/01 10:27:36;;;;;;;1.95;0.80;;;28.80;33.10;;;;;;5050069;28;20520;-63
2022/09/01 10:30:08;;;;;;;2.28;0.88;;;28.90;33.00;;;;;;5049355;28;20033;-62
2022/09/01 10:32:54;;;;;;;2.38;0.90;;;28.90;32.80;;;;;;5052903;28;20028;-63
2022/09/01 10:35:25;;;;;;;3.75;1.00;;;28.90;32.70;;;;;;5083949;28;20036;-63
2022/09/01 10:37:52;;;;;;;1.63;0.77;;;28.90;32.80;;;;;;5078918;28;20042;-63
2022/09/01 10:40:34;;;;;;;1.17;0.60;;;29.00;32.80;;;;;;5095630;28;20150;-63
2022/09/01 10:43:27;;;;;;;1.77;0.95;;;29.00;32.70;;;;;;5075364;28;20040;-62
2022/09/01 10:45:53;;;;;;;5.20;1.13;;;29.10;32.70;;;;;;5085272;28;20044;-62
2022/09/01 10:48:19;;;;;;;1.23;0.70;;;29.10;32.50;;;;;;5091340;28;20099;-63
2022/09/01 10:50:49;;;;;;;2.95;0.80;;;29.10;32.40;;;;;;5060041;28;20170;-63
2022/09/01 10:53:33;;;;;;;2.03;1.05;;;29.10;32.30;;;;;;5094472;28;20031;-63
2022/09/01 10:56:11;;;;;;;2.03;1.00;;;29.10;32.10;;;;;;5086828;28;20028;-63
2022/09/01 10:59:23;;;;;;;1.45;0.82;;;29.10;32.10;;;;;;5083493;28;20027;-63
2022/09/01 11:01:51;;;;;;;3.05;1.08;;;29.10;32.00;;;;;;5064470;28;20052;-64
2022/09/01 11:04:40;;;;;;;1.58;0.80;;;29.10;32.20;;;;;;5076997;28;20047;-63
2022/09/01 11:07:33;;;;;;;2.03;0.82;;;29.10;32.00;;;;;;5084462;28;20032;-63
2022/09/01 11:10:31;;;;;;;1.58;0.77;;;29.10;32.10;;;;;;5091708;28;20089;-63
2022/09/01 11:13:30;;;;;;;3.00;1.30;;;29.10;32.00;;;;;;5053505;28;20029;-63
2022/09/01 11:16:33;;;;;;;1.52;0.88;;;29.10;32.10;;;;;;5045356;28;20432;-63
2022/09/01 11:19:17;;;;;;;1.70;0.82;;;29.10;32.20;;;;;;5042300;28;20040;-63
2022/09/01 11:21:43;;;;;;;2.05;0.73;;;29.10;32.10;;;;;;5055662;28;20389;-63
2022/09/01 11:24:43;;;;;;;4.45;1.02;;;29.10;32.30;;;;;;5044399;28;20165;-63
2022/09/01 11:27:12;;;;;;;3.17;1.00;;;29.10;32.10;;;;;;5054795;28;20341;-63
2022/09/01 11:29:55;;;;;;;2.45;1.00;;;29.10;32.10;;;;;;5071648;28;20036;-63
2022/09/01 11:32:26;;;;;;;1.80;0.88;;;29.00;31.80;;;;;;5065104;28;20437;-63
2022/09/01 11:34:54;;;;;;;2.20;0.90;;;29.00;31.80;;;;;;5076119;28;20050;-67
2022/09/01 11:37:22;;;;;;;2.28;0.75;;;28.90;31.90;;;;;;5066434;28;20031;-68
2022/09/01 11:39:53;;;;;;;1.70;0.75;;;29.00;32.00;;;;;;5044092;28;20031;-67
2022/09/01 11:42:26;;;;;;;2.22;0.82;;;29.00;31.90;;;;;;5055358;28;20025;-67
2022/09/01 11:45:05;;;;;;;1.50;0.70;;;29.00;31.90;;;;;;5068299;28;20031;-66
2022/09/01 11:47:33;;;;;;;3.10;1.30;;;29.00;31.70;;;;;;5060973;28;20043;-66
2022/09/01 11:50:03;;;;;;;2.05;0.80;;;29.00;31.80;;;;;;5094400;28;20032;-67
2022/09/01 11:52:34;;;;;;;2.92;1.10;;;28.90;31.90;;;;;;5072094;28;20052;-67
2022/09/01 11:55:00;;;;;;;;;;;28.90;32.00;;;;;;5052901;28;20119;-67
2022/09/01 11:57:30;;;;;;;2.38;0.70;;;28.90;32.20;;;;;;5060788;28;19947;-68
2022/09/01 11:59:58;;;;;;;1.60;0.70;;;28.90;32.20;;;;;;5072014;28;20032;-66
2022/09/01 12:02:30;;;;;;;3.05;1.40;;;28.80;32.10;;;;;;5084930;28;20144;-67
2022/09/01 12:04:56;;;;;;;2.40;1.02;;;28.70;32.10;;;;;;5095193;28;20081;-67
2022/09/01 12:07:28;;;;;;;3.05;1.02;;;28.70;32.30;;;;;;5095284;28;20024;-67
2022/09/01 12:09:54;;;;;;;1.40;0.70;;;28.60;32.10;;;;;;5085027;28;20020;-67
2022/09/01 12:12:58;;;;;;;2.97;1.10;;;28.60;32.00;;;;;;5058958;28;20479;-67
2022/09/01 12:15:25;;;;;;;1.75;0.70;;;28.50;32.00;;;;;;5052922;28;20040;-67
2022/09/01 12:17:52;;;;;;;3.25;1.30;;;28.40;32.20;;;;;;5087617;28;20111;-67
2022/09/01 12:20:37;;;;;;;4.18;1.23;;;28.40;32.30;;;;;;5066150;28;20039;-66
2022/09/01 12:23:14;;;;;;;2.72;0.95;;;28.40;32.20;;;;;;5076304;28;20341;-66
2022/09/01 12:25:39;;;;;;;3.10;1.00;;;28.30;32.30;;;;;;5092394;28;20363;-68
2022/09/01 12:28:05;;;;;;;1.05;0.80;;;28.20;32.40;;;;;;5076559;28;20031;-68
2022/09/01 12:30:34;;;;;;;3.17;1.30;;;28.20;32.70;;;;;;5076509;28;20451;-68
2022/09/01 12:33:04;;;;;;;3.63;1.27;;;28.10;32.70;;;;;;5069027;28;20339;-68
2022/09/01 12:35:29;;;;;;;3.83;1.20;;;28.00;32.80;;;;;;5073494;28;20036;-68
2022/09/01 12:38:21;;;;;;;4.00;1.27;;;27.90;33.00;;;;;;5094391;28;20035;-68
2022/09/01 12:40:53;;;;;;;7.50;1.13;;;27.90;32.90;;;;;;5072751;28;20032;-68
2022/09/01 12:43:29;;;;;;;2.88;1.13;;;27.70;32.90;;;;;;5075739;28;20024;-69
2022/09/01 12:45:58;;;;;;;1.80;0.77;;;27.70;32.90;;;;;;5081372;28;20035;-69
2022/09/01 12:48:36;;;;;;;2.47;1.15;;;27.70;33.00;;;;;;5084930;28;20332;-69
2022/09/01 12:51:16;;;;;;;3.83;1.30;;;27.60;33.00;;;;;;5087056;28;20436;-69
2022/09/01 12:53:57;;;;;;;2.92;1.00;;;27.60;34.00;;;;;;5092499;28;20070;-68
2022/09/01 12:56:30;;;;;;;2.95;1.17;;;27.50;33.20;;;;;;5094445;28;20028;-68
2022/09/01 12:59:11;;;;;;;2.28;0.80;;;27.40;33.20;;;;;;5076562;28;20082;-68
2022/09/01 13:01:37;;;;;;;;;;;27.30;32.90;;;;;;5076723;28;20048;-69
2022/09/01 13:04:23;;;;;;;2.85;1.00;;;27.30;33.30;;;;;;5089510;28;19947;-68
2022/09/01 13:06:50;;;;;;;2.78;1.00;;;27.20;33.20;;;;;;5076229;28;20438;-67
2022/09/01 13:09:15;;;;;;;2.03;0.95;;;27.10;33.20;;;;;;5094141;28;20103;-66
2022/09/01 13:11:41;;;;;;;2.20;1.00;;;27.10;33.20;;;;;;5076377;28;20436;-65
2022/09/01 13:14:08;;;;;;;2.03;0.90;;;27.00;33.30;;;;;;5094188;28;20097;-66
2022/09/01 13:16:35;;;;;;;2.15;0.90;;;26.90;33.30;;;;;;5060063;28;20024;-65